sensor_id;sensor_type;location;lat;lon;timestamp;temperature;humidity
60469;DHT22;46316;47.582;10.238;2022-08-01T00:01:02;18.80;70.40
60469;DHT22;46316;47.582;10.238;2022-08-01T00:03:28;18.80;70.60
60469;DHT22;46316;47.582;10.238;2022-08-01T00:05:53;18.80;70.70
60469;DHT22;46316;47.582;10.238;2022-08-01T00:08:19;18.80;71.30
60469;DHT22;46316;47.582;10.238;2022-08-01T00:10:44;18.80;71.40
60469;DHT22;46316;47.582;10.238;2022-08-01T00:13:10;18.80;71.70
60469;DHT22;46316;47.582;10.238;2022-08-01T00:15:35;18.70;71.00
60469;DHT22;46316;47.582;10.238;2022-08-01T00:18:01;18.70;70.60
60469;DHT22;46316;47.582;10.238;2022-08-01T00:20:26;18.70;70.90
60469;DHT22;46316;47.582;10.238;2022-08-01T00:22:52;18.70;71.50
60469;DHT22;46316;47.582;10.238;2022-08-01T00:25:17;18.70;71.70
60469;DHT22;46316;47.582;10.238;2022-08-01T00:27:43;18.80;71.20
60469;DHT22;46316;47.582;10.238;2022-08-01T00:30:09;18.70;71.20
60469;DHT22;46316;47.582;10.238;2022-08-01T00:32:34;18.70;72.30
60469;DHT22;46316;47.582;10.238;2022-08-01T00:35:00;18.60;72.30
60469;DHT22;46316;47.582;10.238;2022-08-01T00:37:25;18.50;72.60
60469;DHT22;46316;47.582;10.238;2022-08-01T00:39:51;18.40;72.70
60469;DHT22;46316;47.582;10.238;2022-08-01T00:42:16;18.30;72.80
60469;DHT22;46316;47.582;10.238;2022-08-01T00:44:42;18.20;73.70
60469;DHT22;46316;47.582;10.238;2022-08-01T00:47:08;18.20;73.60
60469;DHT22;46316;47.582;10.238;2022-08-01T00:49:34;18.10;73.70
60469;DHT22;46316;47.582;10.238;2022-08-01T00:52:00;18.00;73.80
60469;DHT22;46316;47.582;10.238;2022-08-01T00:54:27;18.00;74.10
60469;DHT22;46316;47.582;10.238;2022-08-01T00:56:53;18.00;74.00
60469;DHT22;46316;47.582;10.238;2022-08-01T00:59:21;18.00;74.10
60469;DHT22;46316;47.582;10.238;2022-08-01T01:01:47;18.00;74.30
60469;DHT22;46316;47.582;10.238;2022-08-01T01:04:13;18.00;73.70
60469;DHT22;46316;47.582;10.238;2022-08-01T01:06:48;18.00;73.90
60469;DHT22;46316;47.582;10.238;2022-08-01T01:09:39;18.00;73.80
60469;DHT22;46316;47.582;10.238;2022-08-01T01:14:33;17.90;74.60
60469;DHT22;46316;47.582;10.238;2022-08-01T01:17:00;17.90;74.80
60469;DHT22;46316;47.582;10.238;2022-08-01T01:19:30;17.90;75.00
60469;DHT22;46316;47.582;10.238;2022-08-01T01:27:51;17.60;76.20
60469;DHT22;46316;47.582;10.238;2022-08-01T01:30:24;17.50;76.50
60469;DHT22;46316;47.582;10.238;2022-08-01T01:32:51;17.50;76.30
60469;DHT22;46316;47.582;10.238;2022-08-01T01:35:24;17.40;76.60
60469;DHT22;46316;47.582;10.238;2022-08-01T01:37:58;17.40;76.80
60469;DHT22;46316;47.582;10.238;2022-08-01T01:40:25;17.40;77.30
60469;DHT22;46316;47.582;10.238;2022-08-01T01:42:54;17.40;77.00
60469;DHT22;46316;47.582;10.238;2022-08-01T01:45:21;17.30;77.00
60469;DHT22;46316;47.582;10.238;2022-08-01T01:47:49;17.30;77.50
60469;DHT22;46316;47.582;10.238;2022-08-01T01:50:16;17.30;77.90
60469;DHT22;46316;47.582;10.238;2022-08-01T01:52:43;17.30;77.80
60469;DHT22;46316;47.582;10.238;2022-08-01T01:55:10;17.20;77.80
60469;DHT22;46316;47.582;10.238;2022-08-01T01:57:39;17.20;78.20
60469;DHT22;46316;47.582;10.238;2022-08-01T02:00:07;17.20;78.00
60469;DHT22;46316;47.582;10.238;2022-08-01T02:02:36;17.30;78.70
60469;DHT22;46316;47.582;10.238;2022-08-01T02:05:02;17.30;79.20
60469;DHT22;46316;47.582;10.238;2022-08-01T02:07:28;17.40;79.60
60469;DHT22;46316;47.582;10.238;2022-08-01T02:09:56;17.40;79.80
60469;DHT22;46316;47.582;10.238;2022-08-01T02:12:24;17.40;79.30
60469;DHT22;46316;47.582;10.238;2022-08-01T02:14:50;17.40;79.60
60469;DHT22;46316;47.582;10.238;2022-08-01T02:17:18;17.40;79.60
60469;DHT22;46316;47.582;10.238;2022-08-01T02:19:45;17.40;79.50
60469;DHT22;46316;47.582;10.238;2022-08-01T02:22:18;17.40;79.50
60469;DHT22;46316;47.582;10.238;2022-08-01T02:25:10;17.40;79.90
60469;DHT22;46316;47.582;10.238;2022-08-01T02:27:49;17.40;79.50
60469;DHT22;46316;47.582;10.238;2022-08-01T02:30:16;17.30;79.20
60469;DHT22;46316;47.582;10.238;2022-08-01T02:32:51;17.30;78.80
60469;DHT22;46316;47.582;10.238;2022-08-01T02:35:29;17.30;78.30
60469;DHT22;46316;47.582;10.238;2022-08-01T02:37:57;17.30;78.40
60469;DHT22;46316;47.582;10.238;2022-08-01T02:40:26;17.30;79.00
60469;DHT22;46316;47.582;10.238;2022-08-01T02:42:54;17.30;79.10
60469;DHT22;46316;47.582;10.238;2022-08-01T02:45:24;17.30;79.40
60469;DHT22;46316;47.582;10.238;2022-08-01T02:47:51;17.30;79.40
60469;DHT22;46316;47.582;10.238;2022-08-01T02:50:20;17.30;79.00
60469;DHT22;46316;47.582;10.238;2022-08-01T02:52:48;17.20;79.40
60469;DHT22;46316;47.582;10.238;2022-08-01T02:55:14;17.20;79.30
60469;DHT22;46316;47.582;10.238;2022-08-01T02:57:42;17.10;79.50
60469;DHT22;46316;47.582;10.238;2022-08-01T03:00:09;17.00;79.50
60469;DHT22;46316;47.582;10.238;2022-08-01T03:02:36;17.00;79.70
60469;DHT22;46316;47.582;10.238;2022-08-01T03:05:02;16.90;80.00
60469;DHT22;46316;47.582;10.238;2022-08-01T03:07:29;17.00;79.90
60469;DHT22;46316;47.582;10.238;2022-08-01T03:09:56;16.90;80.10
60469;DHT22;46316;47.582;10.238;2022-08-01T03:12:27;17.00;80.00
60469;DHT22;46316;47.582;10.238;2022-08-01T03:14:55;17.00;79.90
60469;DHT22;46316;47.582;10.238;2022-08-01T03:17:24;16.90;79.90
60469;DHT22;46316;47.582;10.238;2022-08-01T03:19:51;16.90;80.10
60469;DHT22;46316;47.582;10.238;2022-08-01T03:22:18;16.90;80.10
60469;DHT22;46316;47.582;10.238;2022-08-01T03:24:48;16.80;80.30
60469;DHT22;46316;47.582;10.238;2022-08-01T03:27:15;16.80;80.70
60469;DHT22;46316;47.582;10.238;2022-08-01T03:29:44;16.70;80.90
60469;DHT22;46316;47.582;10.238;2022-08-01T03:32:11;16.70;81.30
60469;DHT22;46316;47.582;10.238;2022-08-01T03:34:38;16.60;81.30
60469;DHT22;46316;47.582;10.238;2022-08-01T03:37:25;16.50;81.30
60469;DHT22;46316;47.582;10.238;2022-08-01T03:40:06;16.50;81.20
60469;DHT22;46316;47.582;10.238;2022-08-01T03:42:37;16.40;81.40
60469;DHT22;46316;47.582;10.238;2022-08-01T03:45:08;16.40;81.30
60469;DHT22;46316;47.582;10.238;2022-08-01T03:47:36;16.40;81.10
60469;DHT22;46316;47.582;10.238;2022-08-01T03:50:04;16.40;81.20
60469;DHT22;46316;47.582;10.238;2022-08-01T03:52:31;16.40;81.30
60469;DHT22;46316;47.582;10.238;2022-08-01T03:55:05;16.40;81.30
60469;DHT22;46316;47.582;10.238;2022-08-01T03:57:35;16.30;81.60
60469;DHT22;46316;47.582;10.238;2022-08-01T04:00:02;16.30;81.70
60469;DHT22;46316;47.582;10.238;2022-08-01T04:02:31;16.30;81.50
60469;DHT22;46316;47.582;10.238;2022-08-01T04:04:56;16.30;81.70
60469;DHT22;46316;47.582;10.238;2022-08-01T04:07:29;16.20;81.50
60469;DHT22;46316;47.582;10.238;2022-08-01T04:09:55;16.30;81.50
60469;DHT22;46316;47.582;10.238;2022-08-01T04:12:21;16.30;81.50
60469;DHT22;46316;47.582;10.238;2022-08-01T04:14:47;16.40;81.10
60469;DHT22;46316;47.582;10.238;2022-08-01T04:17:13;16.40;80.70
60469;DHT22;46316;47.582;10.238;2022-08-01T04:19:38;16.50;80.70
60469;DHT22;46316;47.582;10.238;2022-08-01T04:22:04;16.60;80.30
60469;DHT22;46316;47.582;10.238;2022-08-01T04:24:32;16.70;79.20
60469;DHT22;46316;47.582;10.238;2022-08-01T04:27:00;16.90;79.30
60469;DHT22;46316;47.582;10.238;2022-08-01T04:29:27;17.20;79.10
60469;DHT22;46316;47.582;10.238;2022-08-01T04:31:55;17.90;77.90
60469;DHT22;46316;47.582;10.238;2022-08-01T04:34:24;18.80;74.70
60469;DHT22;46316;47.582;10.238;2022-08-01T04:36:52;19.80;71.90
60469;DHT22;46316;47.582;10.238;2022-08-01T04:39:20;20.70;68.00
60469;DHT22;46316;47.582;10.238;2022-08-01T04:41:49;21.30;65.50
60469;DHT22;46316;47.582;10.238;2022-08-01T04:44:15;21.90;64.30
60469;DHT22;46316;47.582;10.238;2022-08-01T04:46:42;21.70;63.80
60469;DHT22;46316;47.582;10.238;2022-08-01T04:49:10;21.80;63.90
60469;DHT22;46316;47.582;10.238;2022-08-01T04:51:48;21.90;63.40
60469;DHT22;46316;47.582;10.238;2022-08-01T04:54:14;22.10;62.60
60469;DHT22;46316;47.582;10.238;2022-08-01T04:56:40;22.80;60.90
60469;DHT22;46316;47.582;10.238;2022-08-01T04:59:06;22.80;58.60
60469;DHT22;46316;47.582;10.238;2022-08-01T05:01:50;22.60;59.20
60469;DHT22;46316;47.582;10.238;2022-08-01T05:04:16;22.00;60.30
60469;DHT22;46316;47.582;10.238;2022-08-01T05:06:41;21.40;62.40
60469;DHT22;46316;47.582;10.238;2022-08-01T05:09:07;21.00;63.80
60469;DHT22;46316;47.582;10.238;2022-08-01T05:11:32;20.80;65.30
60469;DHT22;46316;47.582;10.238;2022-08-01T05:13:58;20.70;66.20
60469;DHT22;46316;47.582;10.238;2022-08-01T05:16:23;21.10;64.90
60469;DHT22;46316;47.582;10.238;2022-08-01T05:18:49;22.30;62.10
60469;DHT22;46316;47.582;10.238;2022-08-01T05:21:14;23.90;57.30
60469;DHT22;46316;47.582;10.238;2022-08-01T05:23:40;24.60;54.40
60469;DHT22;46316;47.582;10.238;2022-08-01T05:26:05;24.80;53.30
60469;DHT22;46316;47.582;10.238;2022-08-01T05:28:31;24.30;55.60
60469;DHT22;46316;47.582;10.238;2022-08-01T05:30:56;23.50;56.90
60469;DHT22;46316;47.582;10.238;2022-08-01T05:33:22;23.90;56.70
60469;DHT22;46316;47.582;10.238;2022-08-01T05:35:48;25.10;55.30
60469;DHT22;46316;47.582;10.238;2022-08-01T05:38:13;26.10;50.90
60469;DHT22;46316;47.582;10.238;2022-08-01T05:40:39;27.20;49.00
60469;DHT22;46316;47.582;10.238;2022-08-01T05:43:04;28.20;46.00
60469;DHT22;46316;47.582;10.238;2022-08-01T05:45:30;28.90;45.20
60469;DHT22;46316;47.582;10.238;2022-08-01T05:47:55;29.60;42.70
60469;DHT22;46316;47.582;10.238;2022-08-01T05:50:21;30.30;40.80
60469;DHT22;46316;47.582;10.238;2022-08-01T05:52:46;31.10;40.90
60469;DHT22;46316;47.582;10.238;2022-08-01T05:55:12;31.80;38.70
60469;DHT22;46316;47.582;10.238;2022-08-01T05:57:37;31.90;38.60
60469;DHT22;46316;47.582;10.238;2022-08-01T06:00:03;32.40;37.80
60469;DHT22;46316;47.582;10.238;2022-08-01T06:02:29;31.90;37.90
60469;DHT22;46316;47.582;10.238;2022-08-01T06:04:55;30.90;39.60
60469;DHT22;46316;47.582;10.238;2022-08-01T06:07:20;29.90;40.40
60469;DHT22;46316;47.582;10.238;2022-08-01T06:09:46;28.40;43.70
60469;DHT22;46316;47.582;10.238;2022-08-01T06:12:11;27.60;44.40
60469;DHT22;46316;47.582;10.238;2022-08-01T06:14:37;26.60;47.70
60469;DHT22;46316;47.582;10.238;2022-08-01T06:17:02;25.80;49.70
60469;DHT22;46316;47.582;10.238;2022-08-01T06:19:28;25.40;51.20
60469;DHT22;46316;47.582;10.238;2022-08-01T06:22:00;26.10;50.40
60469;DHT22;46316;47.582;10.238;2022-08-01T06:24:26;27.20;46.40
60469;DHT22;46316;47.582;10.238;2022-08-01T06:26:51;28.40;44.90
60469;DHT22;46316;47.582;10.238;2022-08-01T06:29:59;30.00;42.00
60469;DHT22;46316;47.582;10.238;2022-08-01T06:35:30;31.80;38.70
60469;DHT22;46316;47.582;10.238;2022-08-01T06:38:01;31.30;39.50
60469;DHT22;46316;47.582;10.238;2022-08-01T06:40:30;31.80;39.30
60469;DHT22;46316;47.582;10.238;2022-08-01T06:42:57;32.50;36.50
60469;DHT22;46316;47.582;10.238;2022-08-01T06:45:23;33.10;37.00
60469;DHT22;46316;47.582;10.238;2022-08-01T06:47:51;33.20;36.10
60469;DHT22;46316;47.582;10.238;2022-08-01T06:50:17;33.70;35.20
60469;DHT22;46316;47.582;10.238;2022-08-01T06:52:43;34.00;34.70
60469;DHT22;46316;47.582;10.238;2022-08-01T06:55:09;34.70;32.00
60469;DHT22;46316;47.582;10.238;2022-08-01T06:57:35;35.00;32.40
60469;DHT22;46316;47.582;10.238;2022-08-01T07:00:05;35.10;33.00
60469;DHT22;46316;47.582;10.238;2022-08-01T07:02:34;35.00;32.30
60469;DHT22;46316;47.582;10.238;2022-08-01T07:04:59;34.90;32.60
60469;DHT22;46316;47.582;10.238;2022-08-01T07:07:26;35.30;31.80
60469;DHT22;46316;47.582;10.238;2022-08-01T07:09:52;35.00;32.50
60469;DHT22;46316;47.582;10.238;2022-08-01T07:12:18;35.00;34.00
60469;DHT22;46316;47.582;10.238;2022-08-01T07:14:43;35.90;32.50
60469;DHT22;46316;47.582;10.238;2022-08-01T07:17:09;34.90;34.40
60469;DHT22;46316;47.582;10.238;2022-08-01T07:19:37;35.50;33.50
60469;DHT22;46316;47.582;10.238;2022-08-01T07:22:03;35.70;32.50
60469;DHT22;46316;47.582;10.238;2022-08-01T07:24:29;35.50;31.60
60469;DHT22;46316;47.582;10.238;2022-08-01T07:26:55;35.90;31.90
60469;DHT22;46316;47.582;10.238;2022-08-01T07:29:24;36.50;32.30
60469;DHT22;46316;47.582;10.238;2022-08-01T07:31:53;36.50;30.60
60469;DHT22;46316;47.582;10.238;2022-08-01T07:34:19;36.10;31.30
60469;DHT22;46316;47.582;10.238;2022-08-01T07:37:08;35.30;32.30
60469;DHT22;46316;47.582;10.238;2022-08-01T07:39:45;35.10;33.10
60469;DHT22;46316;47.582;10.238;2022-08-01T07:42:29;34.90;31.70
60469;DHT22;46316;47.582;10.238;2022-08-01T07:45:40;34.70;33.60
60469;DHT22;46316;47.582;10.238;2022-08-01T07:47:44;34.50;33.70
60469;DHT22;46316;47.582;10.238;2022-08-01T07:56:50;34.50;33.70
60469;DHT22;46316;47.582;10.238;2022-08-01T07:59:19;34.70;32.40
60469;DHT22;46316;47.582;10.238;2022-08-01T08:02:00;34.40;33.70
60469;DHT22;46316;47.582;10.238;2022-08-01T08:04:28;34.50;33.00
60469;DHT22;46316;47.582;10.238;2022-08-01T08:06:54;34.80;33.80
60469;DHT22;46316;47.582;10.238;2022-08-01T08:09:28;34.90;32.60
60469;DHT22;46316;47.582;10.238;2022-08-01T08:12:14;34.80;33.50
60469;DHT22;46316;47.582;10.238;2022-08-01T08:14:46;34.70;33.10
60469;DHT22;46316;47.582;10.238;2022-08-01T08:20:25;34.40;34.00
60469;DHT22;46316;47.582;10.238;2022-08-01T08:23:46;34.40;33.90
60469;DHT22;46316;47.582;10.238;2022-08-01T08:29:41;35.30;32.70
60469;DHT22;46316;47.582;10.238;2022-08-01T08:32:07;34.80;33.00
60469;DHT22;46316;47.582;10.238;2022-08-01T08:34:33;35.60;30.90
60469;DHT22;46316;47.582;10.238;2022-08-01T08:37:08;36.00;32.20
60469;DHT22;46316;47.582;10.238;2022-08-01T08:43:56;35.40;32.70
60469;DHT22;46316;47.582;10.238;2022-08-01T08:50:35;34.70;33.40
60469;DHT22;46316;47.582;10.238;2022-08-01T08:53:18;34.80;33.90
60469;DHT22;46316;47.582;10.238;2022-08-01T08:55:44;35.10;33.80
60469;DHT22;46316;47.582;10.238;2022-08-01T08:58:12;35.70;32.50
60469;DHT22;46316;47.582;10.238;2022-08-01T09:00:41;35.20;33.80
60469;DHT22;46316;47.582;10.238;2022-08-01T09:03:10;34.80;34.00
60469;DHT22;46316;47.582;10.238;2022-08-01T09:05:35;34.70;34.80
60469;DHT22;46316;47.582;10.238;2022-08-01T09:08:07;34.50;34.30
60469;DHT22;46316;47.582;10.238;2022-08-01T09:10:33;34.50;34.20
60469;DHT22;46316;47.582;10.238;2022-08-01T09:13:14;34.20;34.90
60469;DHT22;46316;47.582;10.238;2022-08-01T09:15:46;34.40;34.50
60469;DHT22;46316;47.582;10.238;2022-08-01T09:18:30;33.90;35.60
60469;DHT22;46316;47.582;10.238;2022-08-01T09:24:31;34.70;32.40
60469;DHT22;46316;47.582;10.238;2022-08-01T09:26:58;34.10;35.60
60469;DHT22;46316;47.582;10.238;2022-08-01T09:29:27;34.30;35.60
60469;DHT22;46316;47.582;10.238;2022-08-01T09:31:53;34.60;34.40
60469;DHT22;46316;47.582;10.238;2022-08-01T09:34:27;34.30;34.70
60469;DHT22;46316;47.582;10.238;2022-08-01T09:36:55;34.20;35.20
60469;DHT22;46316;47.582;10.238;2022-08-01T09:39:29;33.80;36.50
60469;DHT22;46316;47.582;10.238;2022-08-01T09:41:57;33.50;36.70
60469;DHT22;46316;47.582;10.238;2022-08-01T09:44:39;33.70;36.90
60469;DHT22;46316;47.582;10.238;2022-08-01T09:47:05;34.20;34.30
60469;DHT22;46316;47.582;10.238;2022-08-01T09:49:34;33.70;36.10
60469;DHT22;46316;47.582;10.238;2022-08-01T09:52:18;33.50;36.00
60469;DHT22;46316;47.582;10.238;2022-08-01T09:57:20;33.40;35.90
60469;DHT22;46316;47.582;10.238;2022-08-01T10:00:16;33.60;36.40
60469;DHT22;46316;47.582;10.238;2022-08-01T10:02:41;33.10;35.50
60469;DHT22;46316;47.582;10.238;2022-08-01T10:05:10;33.10;36.00
60469;DHT22;46316;47.582;10.238;2022-08-01T10:10:19;31.80;36.50
60469;DHT22;46316;47.582;10.238;2022-08-01T10:12:45;31.40;37.10
60469;DHT22;46316;47.582;10.238;2022-08-01T10:15:16;31.10;39.00
60469;DHT22;46316;47.582;10.238;2022-08-01T10:17:56;31.30;38.60
60469;DHT22;46316;47.582;10.238;2022-08-01T10:20:25;31.60;39.10
60469;DHT22;46316;47.582;10.238;2022-08-01T10:22:55;31.60;38.40
60469;DHT22;46316;47.582;10.238;2022-08-01T10:25:23;31.60;37.10
60469;DHT22;46316;47.582;10.238;2022-08-01T10:27:50;31.50;38.40
60469;DHT22;46316;47.582;10.238;2022-08-01T10:30:17;31.90;37.40
60469;DHT22;46316;47.582;10.238;2022-08-01T10:32:45;31.60;38.50
60469;DHT22;46316;47.582;10.238;2022-08-01T10:35:11;31.60;38.40
60469;DHT22;46316;47.582;10.238;2022-08-01T10:37:47;32.10;37.70
60469;DHT22;46316;47.582;10.238;2022-08-01T10:40:37;32.40;36.20
60469;DHT22;46316;47.582;10.238;2022-08-01T10:43:03;32.40;34.80
60469;DHT22;46316;47.582;10.238;2022-08-01T10:46:15;32.30;33.80
60469;DHT22;46316;47.582;10.238;2022-08-01T10:48:45;32.20;35.70
60469;DHT22;46316;47.582;10.238;2022-08-01T10:51:13;32.30;35.80
60469;DHT22;46316;47.582;10.238;2022-08-01T10:53:53;32.80;35.50
60469;DHT22;46316;47.582;10.238;2022-08-01T10:56:56;32.90;35.10
60469;DHT22;46316;47.582;10.238;2022-08-01T10:59:33;33.00;33.70
60469;DHT22;46316;47.582;10.238;2022-08-01T11:02:05;32.90;35.00
60469;DHT22;46316;47.582;10.238;2022-08-01T11:04:54;32.90;33.20
60469;DHT22;46316;47.582;10.238;2022-08-01T11:07:43;33.00;34.90
60469;DHT22;46316;47.582;10.238;2022-08-01T11:13:13;32.90;34.80
60469;DHT22;46316;47.582;10.238;2022-08-01T11:15:41;32.80;34.10
60469;DHT22;46316;47.582;10.238;2022-08-01T11:20:59;32.20;34.10
60469;DHT22;46316;47.582;10.238;2022-08-01T11:23:47;32.20;35.80
60469;DHT22;46316;47.582;10.238;2022-08-01T11:26:14;32.00;36.20
60469;DHT22;46316;47.582;10.238;2022-08-01T11:28:40;32.00;34.70
60469;DHT22;46316;47.582;10.238;2022-08-01T11:38:43;31.70;36.60
60469;DHT22;46316;47.582;10.238;2022-08-01T11:44:10;31.60;36.20
60469;DHT22;46316;47.582;10.238;2022-08-01T11:47:05;31.40;37.60
60469;DHT22;46316;47.582;10.238;2022-08-01T11:52:27;31.10;38.40
60469;DHT22;46316;47.582;10.238;2022-08-01T11:55:01;31.00;38.30
60469;DHT22;46316;47.582;10.238;2022-08-01T11:57:32;30.40;38.20
60469;DHT22;46316;47.582;10.238;2022-08-01T12:00:11;30.10;39.40
60469;DHT22;46316;47.582;10.238;2022-08-01T12:02:37;30.20;39.80
60469;DHT22;46316;47.582;10.238;2022-08-01T12:05:09;29.90;38.40
60469;DHT22;46316;47.582;10.238;2022-08-01T12:07:36;29.70;39.70
60469;DHT22;46316;47.582;10.238;2022-08-01T12:10:11;29.60;40.50
60469;DHT22;46316;47.582;10.238;2022-08-01T12:12:42;29.40;40.40
60469;DHT22;46316;47.582;10.238;2022-08-01T12:15:09;29.40;41.70
60469;DHT22;46316;47.582;10.238;2022-08-01T12:17:55;29.30;38.90
60469;DHT22;46316;47.582;10.238;2022-08-01T12:20:23;29.40;38.60
60469;DHT22;46316;47.582;10.238;2022-08-01T12:22:56;29.40;39.60
60469;DHT22;46316;47.582;10.238;2022-08-01T12:25:22;29.50;40.10
60469;DHT22;46316;47.582;10.238;2022-08-01T12:27:49;29.60;39.90
60469;DHT22;46316;47.582;10.238;2022-08-01T12:30:17;29.50;39.10
60469;DHT22;46316;47.582;10.238;2022-08-01T12:32:45;29.60;38.40
60469;DHT22;46316;47.582;10.238;2022-08-01T12:35:14;29.60;39.00
60469;DHT22;46316;47.582;10.238;2022-08-01T12:37:46;29.60;40.00
60469;DHT22;46316;47.582;10.238;2022-08-01T12:40:45;29.60;38.50
60469;DHT22;46316;47.582;10.238;2022-08-01T12:43:17;29.40;38.50
60469;DHT22;46316;47.582;10.238;2022-08-01T12:45:44;29.40;38.40
60469;DHT22;46316;47.582;10.238;2022-08-01T12:48:14;29.30;39.20
60469;DHT22;46316;47.582;10.238;2022-08-01T12:50:45;29.10;39.70
60469;DHT22;46316;47.582;10.238;2022-08-01T12:53:11;29.10;39.00
60469;DHT22;46316;47.582;10.238;2022-08-01T12:55:55;28.90;38.50
60469;DHT22;46316;47.582;10.238;2022-08-01T12:58:21;28.90;38.80
60469;DHT22;46316;47.582;10.238;2022-08-01T13:00:49;28.90;39.70
60469;DHT22;46316;47.582;10.238;2022-08-01T13:03:20;28.90;37.60
60469;DHT22;46316;47.582;10.238;2022-08-01T13:08:16;28.80;38.20
60469;DHT22;46316;47.582;10.238;2022-08-01T13:10:42;28.70;36.30
60469;DHT22;46316;47.582;10.238;2022-08-01T13:13:16;28.60;38.00
60469;DHT22;46316;47.582;10.238;2022-08-01T13:15:44;28.60;38.60
60469;DHT22;46316;47.582;10.238;2022-08-01T13:18:30;28.40;37.60
60469;DHT22;46316;47.582;10.238;2022-08-01T13:23:34;28.30;38.70
60469;DHT22;46316;47.582;10.238;2022-08-01T13:26:00;28.30;38.70
60469;DHT22;46316;47.582;10.238;2022-08-01T13:28:27;28.30;38.40
60469;DHT22;46316;47.582;10.238;2022-08-01T13:30:54;28.40;40.20
60469;DHT22;46316;47.582;10.238;2022-08-01T13:33:19;28.40;40.50
60469;DHT22;46316;47.582;10.238;2022-08-01T13:35:45;28.40;39.10
60469;DHT22;46316;47.582;10.238;2022-08-01T13:38:13;28.50;39.10
60469;DHT22;46316;47.582;10.238;2022-08-01T13:40:41;28.60;39.50
60469;DHT22;46316;47.582;10.238;2022-08-01T13:43:07;28.70;39.00
60469;DHT22;46316;47.582;10.238;2022-08-01T13:45:34;28.70;40.00
60469;DHT22;46316;47.582;10.238;2022-08-01T13:48:00;28.80;40.10
60469;DHT22;46316;47.582;10.238;2022-08-01T13:50:25;28.80;39.30
60469;DHT22;46316;47.582;10.238;2022-08-01T13:52:51;28.90;37.70
60469;DHT22;46316;47.582;10.238;2022-08-01T13:55:22;28.70;38.20
60469;DHT22;46316;47.582;10.238;2022-08-01T13:57:47;28.70;38.40
60469;DHT22;46316;47.582;10.238;2022-08-01T14:00:13;28.70;37.70
60469;DHT22;46316;47.582;10.238;2022-08-01T14:02:39;28.80;38.30
60469;DHT22;46316;47.582;10.238;2022-08-01T14:05:06;28.80;38.70
60469;DHT22;46316;47.582;10.238;2022-08-01T14:07:32;28.90;38.50
60469;DHT22;46316;47.582;10.238;2022-08-01T14:09:57;28.90;38.50
60469;DHT22;46316;47.582;10.238;2022-08-01T14:12:23;28.90;39.70
60469;DHT22;46316;47.582;10.238;2022-08-01T14:14:51;28.80;38.00
60469;DHT22;46316;47.582;10.238;2022-08-01T14:17:17;28.60;39.50
60469;DHT22;46316;47.582;10.238;2022-08-01T14:19:42;28.60;39.80
60469;DHT22;46316;47.582;10.238;2022-08-01T14:22:08;28.60;40.10
60469;DHT22;46316;47.582;10.238;2022-08-01T14:24:34;28.60;40.40
60469;DHT22;46316;47.582;10.238;2022-08-01T14:26:59;28.70;40.10
60469;DHT22;46316;47.582;10.238;2022-08-01T14:29:25;28.70;39.60
60469;DHT22;46316;47.582;10.238;2022-08-01T14:31:50;28.80;39.40
60469;DHT22;46316;47.582;10.238;2022-08-01T14:34:16;28.90;39.60
60469;DHT22;46316;47.582;10.238;2022-08-01T14:36:42;28.90;39.10
60469;DHT22;46316;47.582;10.238;2022-08-01T14:39:10;28.90;39.40
60469;DHT22;46316;47.582;10.238;2022-08-01T14:41:36;28.90;37.80
60469;DHT22;46316;47.582;10.238;2022-08-01T14:44:02;28.60;38.10
60469;DHT22;46316;47.582;10.238;2022-08-01T14:46:29;28.50;37.60
60469;DHT22;46316;47.582;10.238;2022-08-01T14:48:54;28.50;38.80
60469;DHT22;46316;47.582;10.238;2022-08-01T14:51:20;28.40;38.20
60469;DHT22;46316;47.582;10.238;2022-08-01T14:53:46;28.40;38.50
60469;DHT22;46316;47.582;10.238;2022-08-01T14:56:11;28.40;38.70
60469;DHT22;46316;47.582;10.238;2022-08-01T14:58:37;28.60;38.20
60469;DHT22;46316;47.582;10.238;2022-08-01T15:01:03;28.60;38.00
60469;DHT22;46316;47.582;10.238;2022-08-01T15:03:30;28.60;37.90
60469;DHT22;46316;47.582;10.238;2022-08-01T15:05:57;28.50;38.30
60469;DHT22;46316;47.582;10.238;2022-08-01T15:08:22;28.60;38.50
60469;DHT22;46316;47.582;10.238;2022-08-01T15:10:48;28.40;38.70
60469;DHT22;46316;47.582;10.238;2022-08-01T15:13:14;28.40;39.10
60469;DHT22;46316;47.582;10.238;2022-08-01T15:15:39;28.40;38.80
60469;DHT22;46316;47.582;10.238;2022-08-01T15:18:05;28.40;39.90
60469;DHT22;46316;47.582;10.238;2022-08-01T15:20:31;28.40;38.50
60469;DHT22;46316;47.582;10.238;2022-08-01T15:22:58;28.30;38.40
60469;DHT22;46316;47.582;10.238;2022-08-01T15:25:23;28.30;38.80
60469;DHT22;46316;47.582;10.238;2022-08-01T15:27:49;28.20;38.20
60469;DHT22;46316;47.582;10.238;2022-08-01T15:30:14;28.10;38.40
60469;DHT22;46316;47.582;10.238;2022-08-01T15:32:40;28.10;38.10
60469;DHT22;46316;47.582;10.238;2022-08-01T15:35:06;28.00;38.20
60469;DHT22;46316;47.582;10.238;2022-08-01T15:37:32;27.90;38.70
60469;DHT22;46316;47.582;10.238;2022-08-01T15:39:57;27.90;39.40
60469;DHT22;46316;47.582;10.238;2022-08-01T15:42:23;27.90;39.00
60469;DHT22;46316;47.582;10.238;2022-08-01T15:44:49;27.90;38.10
60469;DHT22;46316;47.582;10.238;2022-08-01T15:47:14;27.70;38.60
60469;DHT22;46316;47.582;10.238;2022-08-01T15:49:40;27.60;37.60
60469;DHT22;46316;47.582;10.238;2022-08-01T15:52:07;27.50;38.30
60469;DHT22;46316;47.582;10.238;2022-08-01T15:54:33;27.50;37.90
60469;DHT22;46316;47.582;10.238;2022-08-01T15:56:59;27.40;38.10
60469;DHT22;46316;47.582;10.238;2022-08-01T15:59:25;27.40;38.80
60469;DHT22;46316;47.582;10.238;2022-08-01T16:01:50;27.40;39.40
60469;DHT22;46316;47.582;10.238;2022-08-01T16:04:17;27.40;39.40
60469;DHT22;46316;47.582;10.238;2022-08-01T16:06:43;27.20;38.50
60469;DHT22;46316;47.582;10.238;2022-08-01T16:09:09;27.10;39.10
60469;DHT22;46316;47.582;10.238;2022-08-01T16:11:34;27.10;39.60
60469;DHT22;46316;47.582;10.238;2022-08-01T16:14:00;27.00;39.90
60469;DHT22;46316;47.582;10.238;2022-08-01T16:16:26;26.90;38.20
60469;DHT22;46316;47.582;10.238;2022-08-01T16:18:52;26.90;37.60
60469;DHT22;46316;47.582;10.238;2022-08-01T16:21:17;26.90;37.90
60469;DHT22;46316;47.582;10.238;2022-08-01T16:23:44;26.90;38.70
60469;DHT22;46316;47.582;10.238;2022-08-01T16:26:10;26.90;39.20
60469;DHT22;46316;47.582;10.238;2022-08-01T16:28:36;26.50;47.60
60469;DHT22;46316;47.582;10.238;2022-08-01T16:31:02;26.10;49.20
60469;DHT22;46316;47.582;10.238;2022-08-01T16:33:28;25.80;49.80